PWSweather.com
Personal Weather Stations
Station Observations
KNCPINNA2
Pinnacle , Pinnacle, NC 27043

Pinnacle Pinnacle, NC 27043

Lat: 36.352557, Lon: -80.4434349

Elevation: 898

Station Type: Ambient Weather WS-1090

Latest ConditionsUpdated 8:30:02 PM EDT Wednesday, Apr 23, 2014
Currently Today's Max Today's Min Today's Average
Temperature 61.9°F16.6°C 71.8°F22.1°C 53.2°F11.8°C 62.7°F17.1°C
Dew Point 31.7°F-0.2°C 60.2°F15.7°C 31.7°F-0.2°C 39.9°F4.4°C
Winds 0.7 mph SW1.1 kmh SW 6.0 mph N9.7 kmh N - 1.6 mph 2.6 kmh
Wind Gusts 5.4 mph8.7 kmh 15.9 mph25.6 kmh - -
Humidity 32% 92% 26% 46%
Pressure 29.87 in1011.5 mb 29.87 in1011.5 mb 29.67 in1004.7 mb -
Hour Temp Dew Point Humidity Winds Wind Gusts Pressure Precip Precip Rate Daily Precip Total
08:30 PM 61.9°F16.6°C 31.7°F-0.2°C 32% 0.7 mph SW1.1 kmh SW 5.4 mph8.7 kmh 29.87 in1011.5 mb 0.00 in0.0 mm 0.00 in/hr0.0 mm/hr 0.00 in0.0 mm
08:15 PM 62.4°F16.9°C 32.2°F0.1°C 32% 0.7 mph NW1.1 kmh NW 4.5 mph7.2 kmh 29.86 in1011.2 mb 0.00 in0.0 mm 0.00 in/hr0.0 mm/hr 0.00 in0.0 mm
08:00 PM 63.5°F17.5°C 33.1°F0.6°C 32% Calm Calm 3.8 mph6.1 kmh 29.85 in1010.8 mb 0.00 in0.0 mm 0.00 in/hr0.0 mm/hr 0.00 in0.0 mm
07:45 PM 64.8°F18.2°C 33.4°F0.8°C 31% Calm Calm 2.2 mph3.5 kmh 29.84 in1010.5 mb 0.00 in0.0 mm 0.00 in/hr0.0 mm/hr 0.00 in0.0 mm
07:30 PM 65.8°F18.8°C 33.6°F0.9°C 30% Calm Calm 6.9 mph11.1 kmh 29.83 in1010.2 mb 0.00 in0.0 mm 0.00 in/hr0.0 mm/hr 0.00 in0.0 mm
07:15 PM 66.4°F19.1°C 34.0°F1.1°C 30% Calm Calm 4.5 mph7.2 kmh 29.83 in1010.2 mb 0.00 in0.0 mm 0.00 in/hr0.0 mm/hr 0.00 in0.0 mm
07:00 PM 67.1°F19.5°C 33.8°F1.0°C 29% 2.2 mph NW3.5 kmh NW 8.3 mph13.4 kmh 29.82 in1009.8 mb 0.00 in0.0 mm 0.00 in/hr0.0 mm/hr 0.00 in0.0 mm
06:45 PM 68.0°F20.0°C 34.6°F1.4°C 29% 0.7 mph N1.1 kmh N 5.4 mph8.7 kmh 29.83 in1010.2 mb 0.00 in0.0 mm 0.00 in/hr0.0 mm/hr 0.00 in0.0 mm
06:30 PM 68.7°F20.4°C 34.3°F1.3°C 28% 0.7 mph NNW1.1 kmh NNW 7.6 mph12.2 kmh 29.82 in1009.8 mb 0.00 in0.0 mm 0.00 in/hr0.0 mm/hr 0.00 in0.0 mm
06:15 PM 69.4°F20.8°C 34.0°F1.1°C 27% 3.8 mph NNW6.1 kmh NNW 8.3 mph13.4 kmh 29.81 in1009.5 mb 0.00 in0.0 mm 0.00 in/hr0.0 mm/hr 0.00 in0.0 mm
06:00 PM 69.4°F20.8°C 34.9°F1.6°C 28% 1.6 mph ENE2.6 kmh ENE 6.9 mph11.1 kmh 29.81 in1009.5 mb 0.00 in0.0 mm 0.00 in/hr0.0 mm/hr 0.00 in0.0 mm
05:45 PM 69.8°F21.0°C 33.4°F0.8°C 26% 3.1 mph N5.0 kmh N 8.3 mph13.4 kmh 29.81 in1009.5 mb 0.00 in0.0 mm 0.00 in/hr0.0 mm/hr 0.00 in0.0 mm
05:30 PM 70.2°F21.2°C 34.6°F1.4°C 27% 2.2 mph NW3.5 kmh NW 10.7 mph17.2 kmh 29.81 in1009.5 mb 0.00 in0.0 mm 0.00 in/hr0.0 mm/hr 0.00 in0.0 mm
05:15 PM 70.3°F21.3°C 34.8°F1.6°C 27% 3.8 mph N6.1 kmh N 9.2 mph14.8 kmh 29.80 in1009.1 mb 0.00 in0.0 mm 0.00 in/hr0.0 mm/hr 0.00 in0.0 mm
05:00 PM 70.5°F21.4°C 34.0°F1.1°C 26% 2.2 mph NNW3.5 kmh NNW 6.9 mph11.1 kmh 29.80 in1009.1 mb 0.00 in0.0 mm 0.00 in/hr0.0 mm/hr 0.00 in0.0 mm
04:45 PM 70.5°F21.4°C 35.0°F1.7°C 27% 1.6 mph N2.6 kmh N 9.2 mph14.8 kmh 29.80 in1009.1 mb 0.00 in0.0 mm 0.00 in/hr0.0 mm/hr 0.00 in0.0 mm
04:30 PM 70.9°F21.6°C 36.2°F2.3°C 28% 2.2 mph NW3.5 kmh NW 9.2 mph14.8 kmh 29.80 in1009.1 mb 0.00 in0.0 mm 0.00 in/hr0.0 mm/hr 0.00 in0.0 mm
04:15 PM 70.5°F21.4°C 35.0°F1.7°C 27% 2.2 mph N3.5 kmh N 15.2 mph24.5 kmh 29.80 in1009.1 mb 0.00 in0.0 mm 0.00 in/hr0.0 mm/hr 0.00 in0.0 mm
04:00 PM 70.7°F21.5°C 38.6°F3.7°C 31% 0.7 mph NNW1.1 kmh NNW 8.3 mph13.4 kmh 29.81 in1009.5 mb 0.00 in0.0 mm 0.00 in/hr0.0 mm/hr 0.00 in0.0 mm
03:45 PM 70.3°F21.3°C 35.7°F2.1°C 28% 1.6 mph NW2.6 kmh NW 13.0 mph20.9 kmh 29.81 in1009.5 mb 0.00 in0.0 mm 0.00 in/hr0.0 mm/hr 0.00 in0.0 mm
03:30 PM 71.8°F22.1°C 36.0°F2.2°C 27% 2.2 mph NW3.5 kmh NW 8.3 mph13.4 kmh 29.81 in1009.5 mb 0.00 in0.0 mm 0.00 in/hr0.0 mm/hr 0.00 in0.0 mm
03:15 PM 71.4°F21.9°C 36.6°F2.6°C 28% 1.6 mph NE2.6 kmh NE 9.2 mph14.8 kmh 29.81 in1009.5 mb 0.00 in0.0 mm 0.00 in/hr0.0 mm/hr 0.00 in0.0 mm
03:00 PM 71.8°F22.1°C 36.0°F2.2°C 27% 5.4 mph WNW8.7 kmh WNW 9.8 mph15.8 kmh 29.81 in1009.5 mb 0.00 in0.0 mm 0.00 in/hr0.0 mm/hr 0.00 in0.0 mm
02:45 PM 71.1°F21.7°C 38.9°F3.8°C 31% 0.7 mph WSW1.1 kmh WSW 5.4 mph8.7 kmh 29.82 in1009.8 mb 0.00 in0.0 mm 0.00 in/hr0.0 mm/hr 0.00 in0.0 mm
02:30 PM 68.7°F20.4°C 35.2°F1.8°C 29% 3.1 mph NNW5.0 kmh NNW 9.8 mph15.8 kmh 29.82 in1009.8 mb 0.00 in0.0 mm 0.00 in/hr0.0 mm/hr 0.00 in0.0 mm
02:15 PM 69.4°F20.8°C 37.5°F3.1°C 31% 1.6 mph NNE2.6 kmh NNE 9.8 mph15.8 kmh 29.81 in1009.5 mb 0.00 in0.0 mm 0.00 in/hr0.0 mm/hr 0.00 in0.0 mm
02:00 PM 68.7°F20.4°C 35.2°F1.8°C 29% 0.7 mph WNW1.1 kmh WNW 13.6 mph21.9 kmh 29.82 in1009.8 mb 0.00 in0.0 mm 0.00 in/hr0.0 mm/hr 0.00 in0.0 mm
01:45 PM 67.6°F19.8°C 34.3°F1.3°C 29% 2.2 mph WNW3.5 kmh WNW 11.4 mph18.3 kmh 29.83 in1010.2 mb 0.00 in0.0 mm 0.00 in/hr0.0 mm/hr 0.00 in0.0 mm
01:30 PM 67.8°F19.9°C 36.9°F2.7°C 32% 3.8 mph NNE6.1 kmh NNE 9.2 mph14.8 kmh 29.83 in1010.2 mb 0.00 in0.0 mm 0.00 in/hr0.0 mm/hr 0.00 in0.0 mm
01:15 PM 66.9°F19.4°C 34.5°F1.4°C 30% 1.6 mph NNW2.6 kmh NNW 9.8 mph15.8 kmh 29.83 in1010.2 mb 0.00 in0.0 mm 0.00 in/hr0.0 mm/hr 0.00 in0.0 mm
01:00 PM 65.7°F18.7°C 33.4°F0.8°C 30% 3.8 mph WNW6.1 kmh WNW 9.2 mph14.8 kmh 29.83 in1010.2 mb 0.00 in0.0 mm 0.00 in/hr0.0 mm/hr 0.00 in0.0 mm
12:45 PM 65.7°F18.7°C 34.2°F1.2°C 31% 4.5 mph NW7.2 kmh NW 9.2 mph14.8 kmh 29.84 in1010.5 mb 0.00 in0.0 mm 0.00 in/hr0.0 mm/hr 0.00 in0.0 mm
12:30 PM 65.8°F18.8°C 34.4°F1.3°C 31% 3.8 mph NNW6.1 kmh NNW 9.2 mph14.8 kmh 29.85 in1010.8 mb 0.00 in0.0 mm 0.00 in/hr0.0 mm/hr 0.00 in0.0 mm
12:15 PM 65.3°F18.5°C 37.7°F3.2°C 36% 0.7 mph NW1.1 kmh NW 7.6 mph12.2 kmh 29.85 in1010.8 mb 0.00 in0.0 mm 0.00 in/hr0.0 mm/hr 0.00 in0.0 mm
12:00 PM 65.1°F18.4°C 37.5°F3.1°C 36% 2.2 mph N3.5 kmh N 6.0 mph9.7 kmh 29.85 in1010.8 mb 0.00 in0.0 mm 0.00 in/hr0.0 mm/hr 0.00 in0.0 mm
11:45 AM 63.9°F17.7°C 35.7°F2.1°C 35% 6.0 mph N9.7 kmh N 10.7 mph17.2 kmh 29.85 in1010.8 mb 0.00 in0.0 mm 0.00 in/hr0.0 mm/hr 0.00 in0.0 mm
11:30 AM 63.9°F17.7°C 37.8°F3.2°C 38% 3.8 mph NW6.1 kmh NW 11.4 mph18.3 kmh 29.85 in1010.8 mb 0.00 in0.0 mm 0.00 in/hr0.0 mm/hr 0.00 in0.0 mm
11:15 AM 63.1°F17.3°C 37.1°F2.8°C 38% 0.7 mph NNW1.1 kmh NNW 6.0 mph9.7 kmh 29.84 in1010.5 mb 0.00 in0.0 mm 0.00 in/hr0.0 mm/hr 0.00 in0.0 mm
11:00 AM 62.4°F16.9°C 35.8°F2.1°C 37% 2.2 mph NNW3.5 kmh NNW 6.9 mph11.1 kmh 29.84 in1010.5 mb 0.00 in0.0 mm 0.00 in/hr0.0 mm/hr 0.00 in0.0 mm
10:45 AM 61.5°F16.4°C 36.3°F2.4°C 39% 1.6 mph NNW2.6 kmh NNW 8.3 mph13.4 kmh 29.83 in1010.2 mb 0.00 in0.0 mm 0.00 in/hr0.0 mm/hr 0.00 in0.0 mm
10:30 AM 60.8°F16.0°C 38.8°F3.8°C 44% 1.6 mph W2.6 kmh W 7.6 mph12.2 kmh 29.83 in1010.2 mb 0.00 in0.0 mm 0.00 in/hr0.0 mm/hr 0.00 in0.0 mm
10:15 AM 59.5°F15.3°C 38.2°F3.4°C 45% 2.2 mph NW3.5 kmh NW 6.9 mph11.1 kmh 29.83 in1010.2 mb 0.00 in0.0 mm 0.00 in/hr0.0 mm/hr 0.00 in0.0 mm
10:00 AM 58.1°F14.5°C 36.9°F2.7°C 45% 0.7 mph NW1.1 kmh NW 9.2 mph14.8 kmh 29.82 in1009.8 mb 0.00 in0.0 mm 0.00 in/hr0.0 mm/hr 0.00 in0.0 mm
09:45 AM 57.6°F14.2°C 37.5°F3.1°C 47% 1.6 mph NW2.6 kmh NW 10.7 mph17.2 kmh 29.82 in1009.8 mb 0.00 in0.0 mm 0.00 in/hr0.0 mm/hr 0.00 in0.0 mm
09:30 AM 57.0°F13.9°C 38.1°F3.4°C 49% 1.6 mph N2.6 kmh N 6.0 mph9.7 kmh 29.82 in1009.8 mb 0.00 in0.0 mm 0.00 in/hr0.0 mm/hr 0.00 in0.0 mm
09:15 AM 56.5°F13.6°C 38.1°F3.4°C 50% 2.2 mph NNW3.5 kmh NNW 6.9 mph11.1 kmh 29.82 in1009.8 mb 0.00 in0.0 mm 0.00 in/hr0.0 mm/hr 0.00 in0.0 mm
09:00 AM 55.9°F13.3°C 38.6°F3.7°C 52% 2.2 mph NW3.5 kmh NW 6.0 mph9.7 kmh 29.81 in1009.5 mb 0.00 in0.0 mm 0.00 in/hr0.0 mm/hr 0.00 in0.0 mm
08:45 AM 55.4°F13.0°C 38.1°F3.4°C 52% 0.7 mph NNE1.1 kmh NNE 9.8 mph15.8 kmh 29.82 in1009.8 mb 0.00 in0.0 mm 0.00 in/hr0.0 mm/hr 0.00 in0.0 mm
08:30 AM 55.2°F12.9°C 38.4°F3.6°C 53% Calm Calm 6.9 mph11.1 kmh 29.81 in1009.5 mb 0.00 in0.0 mm 0.00 in/hr0.0 mm/hr 0.00 in0.0 mm
08:15 AM 55.2°F12.9°C 39.3°F4.1°C 55% Calm Calm 5.4 mph8.7 kmh 29.80 in1009.1 mb 0.00 in0.0 mm 0.00 in/hr0.0 mm/hr 0.00 in0.0 mm
08:00 AM 54.5°F12.5°C 37.7°F3.2°C 53% 0.7 mph NNW1.1 kmh NNW 9.8 mph15.8 kmh 29.80 in1009.1 mb 0.00 in0.0 mm 0.00 in/hr0.0 mm/hr 0.00 in0.0 mm
07:45 AM 54.0°F12.2°C 37.7°F3.2°C 54% 2.2 mph NNW3.5 kmh NNW 7.6 mph12.2 kmh 29.79 in1008.8 mb 0.00 in0.0 mm 0.00 in/hr0.0 mm/hr 0.00 in0.0 mm
07:30 AM 53.4°F11.9°C 37.7°F3.2°C 55% Calm Calm 3.1 mph5.0 kmh 29.77 in1008.1 mb 0.00 in0.0 mm 0.00 in/hr0.0 mm/hr 0.00 in0.0 mm
07:15 AM 53.2°F11.8°C 37.5°F3.1°C 55% Calm Calm 3.8 mph6.1 kmh 29.77 in1008.1 mb 0.00 in0.0 mm 0.00 in/hr0.0 mm/hr 0.00 in0.0 mm
07:00 AM 53.6°F12.0°C 36.9°F2.7°C 53% Calm Calm 3.1 mph5.0 kmh 29.76 in1007.8 mb 0.00 in0.0 mm 0.00 in/hr0.0 mm/hr 0.00 in0.0 mm
06:45 AM 53.8°F12.1°C 37.1°F2.8°C 53% Calm Calm 4.5 mph7.2 kmh 29.75 in1007.5 mb 0.00 in0.0 mm 0.00 in/hr0.0 mm/hr 0.00 in0.0 mm
06:30 AM 54.5°F12.5°C 36.8°F2.7°C 51% Calm Calm 8.3 mph13.4 kmh 29.74 in1007.1 mb 0.00 in0.0 mm 0.00 in/hr0.0 mm/hr 0.00 in0.0 mm
06:15 AM 54.9°F12.7°C 37.1°F2.8°C 51% 3.1 mph NNW5.0 kmh NNW 5.4 mph8.7 kmh 29.73 in1006.8 mb 0.00 in0.0 mm 0.00 in/hr0.0 mm/hr 0.00 in0.0 mm
06:00 AM 55.9°F13.3°C 37.1°F2.8°C 49% 0.7 mph NNW1.1 kmh NNW 7.6 mph12.2 kmh 29.74 in1007.1 mb 0.00 in0.0 mm 0.00 in/hr0.0 mm/hr 0.00 in0.0 mm
05:45 AM 57.0°F13.9°C 37.0°F2.8°C 47% 4.5 mph NNW7.2 kmh NNW 12.1 mph19.5 kmh 29.72 in1006.4 mb 0.00 in0.0 mm 0.00 in/hr0.0 mm/hr 0.00 in0.0 mm
05:30 AM 57.4°F14.1°C 36.8°F2.7°C 46% 2.2 mph NW3.5 kmh NW 10.7 mph17.2 kmh 29.72 in1006.4 mb 0.00 in0.0 mm 0.00 in/hr0.0 mm/hr 0.00 in0.0 mm
05:15 AM 57.7°F14.3°C 37.7°F3.2°C 47% 1.6 mph NNW2.6 kmh NNW 7.6 mph12.2 kmh 29.71 in1006.1 mb 0.00 in0.0 mm 0.00 in/hr0.0 mm/hr 0.00 in0.0 mm
05:00 AM 58.3°F14.6°C 39.2°F4.0°C 49% 1.6 mph NNW2.6 kmh NNW 15.9 mph25.6 kmh 29.71 in1006.1 mb 0.00 in0.0 mm 0.00 in/hr0.0 mm/hr 0.00 in0.0 mm
04:45 AM 58.6°F14.8°C 40.1°F4.5°C 50% 3.8 mph N6.1 kmh N 9.2 mph14.8 kmh 29.70 in1005.8 mb 0.00 in0.0 mm 0.00 in/hr0.0 mm/hr 0.00 in0.0 mm
04:30 AM 58.5°F14.7°C 41.4°F5.2°C 53% 2.2 mph NW3.5 kmh NW 9.2 mph14.8 kmh 29.70 in1005.8 mb 0.00 in0.0 mm 0.00 in/hr0.0 mm/hr 0.00 in0.0 mm
04:15 AM 58.1°F14.5°C 43.0°F6.1°C 57% 0.7 mph WSW1.1 kmh WSW 5.4 mph8.7 kmh 29.70 in1005.8 mb 0.00 in0.0 mm 0.00 in/hr0.0 mm/hr 0.00 in0.0 mm
04:00 AM 58.5°F14.7°C 44.2°F6.8°C 59% 0.7 mph NW1.1 kmh NW 5.4 mph8.7 kmh 29.70 in1005.8 mb 0.00 in0.0 mm 0.00 in/hr0.0 mm/hr 0.00 in0.0 mm
03:45 AM 59.7°F15.4°C 44.9°F7.2°C 58% 2.2 mph NNW3.5 kmh NNW 9.8 mph15.8 kmh 29.70 in1005.8 mb 0.00 in0.0 mm 0.00 in/hr0.0 mm/hr 0.00 in0.0 mm
03:30 AM 60.1°F15.6°C 47.0°F8.3°C 62% Calm Calm 6.0 mph9.7 kmh 29.70 in1005.8 mb 0.00 in0.0 mm 0.00 in/hr0.0 mm/hr 0.00 in0.0 mm
03:15 AM 60.8°F16.0°C 48.6°F9.2°C 64% Calm Calm 8.3 mph13.4 kmh 29.69 in1005.4 mb 0.00 in0.0 mm 0.00 in/hr0.0 mm/hr 0.00 in0.0 mm
03:00 AM 61.5°F16.4°C 49.2°F9.6°C 64% 3.8 mph WNW6.1 kmh WNW 10.7 mph17.2 kmh 29.69 in1005.4 mb 0.00 in0.0 mm 0.00 in/hr0.0 mm/hr 0.00 in0.0 mm
02:45 AM 62.1°F16.7°C 50.6°F10.3°C 66% 0.7 mph NW1.1 kmh NW 4.5 mph7.2 kmh 29.70 in1005.8 mb 0.00 in0.0 mm 0.00 in/hr0.0 mm/hr 0.00 in0.0 mm
02:30 AM 62.8°F17.1°C 50.9°F10.5°C 65% 1.6 mph NNW2.6 kmh NNW 11.4 mph18.3 kmh 29.69 in1005.4 mb 0.00 in0.0 mm 0.00 in/hr0.0 mm/hr 0.00 in0.0 mm
02:15 AM 62.2°F16.8°C 51.6°F10.9°C 68% 1.6 mph N2.6 kmh N 11.4 mph18.3 kmh 29.69 in1005.4 mb 0.00 in0.0 mm 0.00 in/hr0.0 mm/hr 0.00 in0.0 mm
02:00 AM 62.2°F16.8°C 53.5°F11.9°C 73% 2.2 mph NW3.5 kmh NW 8.3 mph13.4 kmh 29.69 in1005.4 mb 0.00 in0.0 mm 0.00 in/hr0.0 mm/hr 0.00 in0.0 mm
01:45 AM 61.0°F16.1°C 56.5°F13.6°C 85% 0.7 mph NNW1.1 kmh NNW 12.1 mph19.5 kmh 29.69 in1005.4 mb 0.00 in0.0 mm 0.00 in/hr0.0 mm/hr 0.00 in0.0 mm
01:30 AM 60.3°F15.7°C 57.6°F14.2°C 91% Calm Calm 2.2 mph3.5 kmh 29.69 in1005.4 mb 0.00 in0.0 mm 0.00 in/hr0.0 mm/hr 0.00 in0.0 mm
01:15 AM 60.8°F16.0°C 57.9°F14.4°C 90% 0.7 mph SSW1.1 kmh SSW 2.2 mph3.5 kmh 29.69 in1005.4 mb 0.00 in0.0 mm 0.00 in/hr0.0 mm/hr 0.00 in0.0 mm
01:00 AM 61.9°F16.6°C 58.9°F14.9°C 90% Calm Calm 3.8 mph6.1 kmh 29.69 in1005.4 mb 0.00 in0.0 mm 0.00 in/hr0.0 mm/hr 0.00 in0.0 mm
12:45 AM 61.9°F16.6°C 59.2°F15.1°C 91% Calm Calm 2.2 mph3.5 kmh 29.68 in1005.1 mb 0.00 in0.0 mm 0.00 in/hr0.0 mm/hr 0.00 in0.0 mm
12:30 AM 62.1°F16.7°C 59.7°F15.4°C 92% Calm Calm 2.2 mph3.5 kmh 29.68 in1005.1 mb 0.00 in0.0 mm 0.00 in/hr0.0 mm/hr 0.00 in0.0 mm
12:15 AM 62.6°F17.0°C 60.0°F15.6°C 91% Calm Calm 5.4 mph8.7 kmh 29.68 in1005.1 mb 0.00 in0.0 mm 0.00 in/hr0.0 mm/hr 0.00 in0.0 mm
12:00 AM 63.5°F17.5°C 60.2°F15.7°C 89% Calm Calm 5.4 mph8.7 kmh 29.67 in1004.7 mb 0.00 in0.0 mm 0.00 in/hr0.0 mm/hr 0.00 in0.0 mm